createdAt,value
2017-08-07T00:01:41.311Z,0
2017-08-07T00:04:05.317Z,0
2017-08-07T00:06:29.254Z,0
2017-08-07T00:08:53.237Z,0
2017-08-07T00:11:17.195Z,0
2017-08-07T00:13:32.744Z,0
2017-08-07T00:15:39.904Z,0
2017-08-07T00:18:03.850Z,0
2017-08-07T00:20:19.365Z,0
2017-08-07T00:22:34.819Z,0
2017-08-07T00:24:58.776Z,0
2017-08-07T00:27:22.727Z,0
2017-08-07T00:29:46.662Z,0
2017-08-07T00:32:10.616Z,0
2017-08-07T00:34:34.570Z,0
2017-08-07T00:36:50.046Z,0
2017-08-07T00:39:05.540Z,0
2017-08-07T00:41:29.446Z,0
2017-08-07T00:43:53.355Z,0
2017-08-07T00:46:17.267Z,0
2017-08-07T00:48:41.146Z,0
2017-08-07T00:53:06.426Z,0
2017-08-07T00:55:21.945Z,0
2017-08-07T00:57:45.873Z,0
2017-08-07T01:00:01.349Z,0
2017-08-07T01:02:25.238Z,0
2017-08-07T01:06:33.623Z,0
2017-08-07T01:08:57.477Z,0
2017-08-07T01:11:21.384Z,0
2017-08-07T01:13:45.283Z,0
2017-08-07T01:16:09.174Z,0
2017-08-07T01:18:33.008Z,0
2017-08-07T01:20:56.911Z,0
2017-08-07T01:23:20.871Z,0
2017-08-07T01:25:44.778Z,0
2017-08-07T01:28:08.673Z,0
2017-08-07T01:30:15.658Z,0
2017-08-07T01:32:31.124Z,0
2017-08-07T01:36:56.393Z,0
2017-08-07T01:39:20.309Z,0
2017-08-07T01:41:44.160Z,0
2017-08-07T01:44:08.054Z,0
2017-08-07T01:46:23.525Z,0
2017-08-07T01:48:47.404Z,0
2017-08-07T01:53:12.593Z,0
2017-08-07T01:55:19.634Z,0
2017-08-07T01:57:43.477Z,0
2017-08-07T02:00:07.336Z,0
2017-08-07T02:02:22.783Z,0
2017-08-07T02:04:46.646Z,0
2017-08-07T02:09:11.790Z,0
2017-08-07T02:11:27.241Z,0
2017-08-07T02:13:51.086Z,0
2017-08-07T02:16:14.928Z,0
2017-08-07T02:18:38.754Z,0
2017-08-07T02:20:54.188Z,0
2017-08-07T02:25:02.474Z,0
2017-08-07T02:27:26.325Z,0
2017-08-07T02:29:50.155Z,0
2017-08-07T02:32:13.991Z,0
2017-08-07T02:34:37.826Z,0
2017-08-07T02:36:53.224Z,0
2017-08-07T02:39:17.050Z,0
2017-08-07T02:41:24.042Z,0
2017-08-07T02:43:39.437Z,0
2017-08-07T02:46:03.252Z,0
2017-08-07T02:48:18.673Z,0
2017-08-07T02:50:42.443Z,0
2017-08-07T02:53:06.238Z,0
2017-08-07T02:55:30.035Z,0
2017-08-07T02:57:36.973Z,0
2017-08-07T02:59:52.313Z,0
2017-08-07T03:02:07.663Z,0
2017-08-07T03:04:31.465Z,0
2017-08-07T03:06:55.241Z,0
2017-08-07T03:11:20.351Z,0
2017-08-07T03:13:44.143Z,0
2017-08-07T03:15:59.510Z,0
2017-08-07T03:18:23.307Z,0
2017-08-07T03:20:38.683Z,0
2017-08-07T03:25:12.338Z,0
2017-08-07T03:27:36.118Z,0
2017-08-07T03:29:43.058Z,0
2017-08-07T03:32:06.834Z,0
2017-08-07T03:34:22.213Z,0
2017-08-07T03:36:45.987Z,0
2017-08-07T03:39:01.386Z,0
2017-08-07T03:41:16.755Z,0
2017-08-07T03:43:40.527Z,0
2017-08-07T03:46:04.291Z,0
2017-08-07T03:50:20.940Z,0
2017-08-07T03:54:46.504Z,0
2017-08-07T03:57:10.300Z,0
2017-08-07T03:59:17.185Z,0
2017-08-07T04:01:40.944Z,0
2017-08-07T04:08:24.352Z,0
2017-08-07T04:10:48.132Z,5
2017-08-07T04:13:11.885Z,5
2017-08-07T04:15:27.214Z,5
2017-08-07T04:17:50.939Z,10
2017-08-07T04:22:07.565Z,10
2017-08-07T04:24:31.339Z,10
2017-08-07T04:26:38.277Z,15
2017-08-07T04:28:53.595Z,15
2017-08-07T04:31:17.269Z,20
2017-08-07T04:33:40.955Z,20
2017-08-07T04:36:04.714Z,25
2017-08-07T04:38:28.467Z,25
2017-08-07T04:40:35.390Z,25
2017-08-07T04:42:59.146Z,30
2017-08-07T04:45:22.899Z,30
2017-08-07T04:47:46.695Z,35
2017-08-07T04:50:02.037Z,40
2017-08-07T04:52:25.827Z,45
2017-08-07T04:54:41.191Z,50
2017-08-07T04:57:04.990Z,80
2017-08-07T04:59:28.826Z,85
2017-08-07T05:01:52.793Z,95
2017-08-07T05:04:16.884Z,95
2017-08-07T05:06:41.112Z,105
2017-08-07T05:09:05.442Z,115
2017-08-07T05:11:21.484Z,120
2017-08-07T05:13:37.649Z,130
2017-08-07T05:16:02.404Z,135
2017-08-07T05:18:27.273Z,145
2017-08-07T05:20:52.230Z,155
2017-08-07T05:23:17.293Z,165
2017-08-07T05:25:42.503Z,180
2017-08-07T05:28:07.771Z,195
2017-08-07T05:30:24.612Z,215
2017-08-07T05:32:50.026Z,235
2017-08-07T05:35:15.533Z,395
2017-08-07T05:37:41.091Z,1120
2017-08-07T05:40:06.671Z,1060
2017-08-07T05:42:23.808Z,1155
2017-08-07T05:44:41.032Z,1230
2017-08-07T05:47:06.815Z,1195
2017-08-07T05:49:32.678Z,1190
2017-08-07T05:51:58.622Z,1310
2017-08-07T05:56:26.546Z,1365
2017-08-07T05:58:52.643Z,1300
2017-08-07T06:01:18.831Z,1415
2017-08-07T06:03:45.106Z,1505
2017-08-07T06:06:02.834Z,1325
2017-08-07T06:08:29.218Z,1455
2017-08-07T06:10:55.641Z,1475
2017-08-07T06:13:22.106Z,1405
2017-08-07T06:15:48.624Z,1615
2017-08-07T06:18:15.218Z,1645
2017-08-07T06:20:33.284Z,1680
2017-08-07T06:23:00.017Z,1675
2017-08-07T06:25:26.769Z,1675
2017-08-07T06:27:44.955Z,1660
2017-08-07T06:30:11.817Z,1695
2017-08-07T06:32:38.694Z,1720
2017-08-07T06:34:56.996Z,1690
2017-08-07T06:37:23.988Z,1420
2017-08-07T06:42:02.361Z,585
2017-08-07T06:44:30.962Z,600
2017-08-07T06:49:48.417Z,645
2017-08-07T06:52:18.963Z,675
2017-08-07T06:57:12.269Z,1875
2017-08-07T06:59:39.591Z,1855
2017-08-07T07:02:08.548Z,1830
2017-08-07T07:04:43.453Z,1930
2017-08-07T07:10:25.054Z,1895
2017-08-07T07:12:53.559Z,1880
2017-08-07T07:15:23.934Z,2010
2017-08-07T07:17:51.018Z,1910
2017-08-07T07:20:18.068Z,555
2017-08-07T07:22:44.853Z,455
2017-08-07T07:25:11.596Z,410
2017-08-07T07:27:38.599Z,355
2017-08-07T07:31:44.367Z,355
2017-08-07T07:34:10.643Z,370
2017-08-07T07:36:36.838Z,405
2017-08-07T07:39:03.200Z,380
2017-08-07T07:41:28.818Z,360
2017-08-07T07:43:55.731Z,365
2017-08-07T07:46:21.590Z,395
2017-08-07T07:48:47.496Z,465
2017-08-07T07:51:13.178Z,525
2017-08-07T07:53:39.134Z,520
2017-08-07T07:56:07.644Z,545
2017-08-07T07:58:36.657Z,555
2017-08-07T08:01:02.631Z,595
2017-08-07T08:03:20.332Z,600
2017-08-07T08:05:46.335Z,580
2017-08-07T08:08:03.512Z,520
2017-08-07T08:10:29.498Z,500
2017-08-07T08:12:55.208Z,490
2017-08-07T08:15:20.996Z,515
2017-08-07T08:17:46.876Z,510
2017-08-07T08:24:34.554Z,550
2017-08-07T08:27:00.402Z,560
2017-08-07T08:29:17.704Z,565
2017-08-07T08:31:44.179Z,565
2017-08-07T08:34:09.967Z,520
2017-08-07T08:36:35.715Z,540
2017-08-07T08:39:01.429Z,520
2017-08-07T08:41:27.149Z,440
2017-08-07T08:43:52.872Z,520
2017-08-07T08:46:18.504Z,500
2017-08-07T08:48:44.114Z,455
2017-08-07T08:51:09.772Z,435
2017-08-07T08:55:12.132Z,360
2017-08-07T08:57:37.747Z,355
2017-08-07T09:00:03.341Z,360
2017-08-07T09:02:29.004Z,365
2017-08-07T09:04:54.690Z,365
2017-08-07T09:09:31.284Z,365
2017-08-07T09:11:39.920Z,370
2017-08-07T09:14:05.657Z,370
2017-08-07T09:16:31.312Z,375
2017-08-07T09:18:56.990Z,380
2017-08-07T09:21:22.583Z,370
2017-08-07T09:23:48.195Z,370
2017-08-07T09:26:13.828Z,350
2017-08-07T09:30:41.723Z,340
2017-08-07T09:33:07.390Z,310
2017-08-07T09:37:09.426Z,310
2017-08-07T09:39:34.930Z,220
2017-08-07T09:42:00.479Z,280
2017-08-07T09:44:26.001Z,205
2017-08-07T09:46:51.534Z,280
2017-08-07T09:49:16.994Z,250
2017-08-07T09:51:42.367Z,265
2017-08-07T09:54:07.761Z,260
2017-08-07T09:56:33.146Z,255
2017-08-07T09:58:58.528Z,245
2017-08-07T10:01:23.987Z,150
2017-08-07T10:03:49.357Z,235
2017-08-07T10:06:14.709Z,230
2017-08-07T10:08:40.139Z,190
2017-08-07T10:11:05.465Z,190
2017-08-07T10:13:30.868Z,165
2017-08-07T10:15:56.170Z,160
2017-08-07T10:18:21.459Z,160
2017-08-07T10:20:46.752Z,160
2017-08-07T10:25:22.827Z,155
2017-08-07T10:27:48.189Z,160
2017-08-07T10:30:13.375Z,105
2017-08-07T10:32:38.597Z,160
2017-08-07T10:34:55.233Z,160
2017-08-07T10:37:20.364Z,160
2017-08-07T10:39:45.502Z,155
2017-08-07T10:42:10.590Z,150
2017-08-07T10:44:35.683Z,155
2017-08-07T10:47:00.745Z,125
2017-08-07T10:49:25.829Z,145
2017-08-07T10:51:42.316Z,145
2017-08-07T10:54:07.365Z,145
2017-08-07T10:56:32.371Z,140
2017-08-07T10:58:57.419Z,140
2017-08-07T11:01:22.387Z,140
2017-08-07T11:03:47.377Z,130
2017-08-07T11:06:12.400Z,120
2017-08-07T11:08:37.419Z,135
2017-08-07T11:10:53.958Z,125
2017-08-07T11:13:18.850Z,120
2017-08-07T11:15:43.793Z,125
2017-08-07T11:18:08.764Z,120
2017-08-07T11:20:25.252Z,115
2017-08-07T11:24:52.299Z,110
2017-08-07T11:27:17.243Z,110
2017-08-07T11:29:42.136Z,110
2017-08-07T11:32:07.010Z,105
2017-08-07T11:34:31.899Z,100
2017-08-07T11:38:32.952Z,100
2017-08-07T11:40:57.886Z,105
2017-08-07T11:43:22.798Z,105
2017-08-07T11:45:47.666Z,100
2017-08-07T11:48:12.520Z,100
2017-08-07T11:50:37.402Z,100
2017-08-07T11:53:02.380Z,100
2017-08-07T11:55:27.211Z,100
2017-08-07T11:57:52.048Z,95
2017-08-07T12:00:16.927Z,95
2017-08-07T12:02:33.330Z,95
2017-08-07T12:04:41.239Z,95
2017-08-07T12:07:06.154Z,95
2017-08-07T12:09:31.044Z,95
2017-08-07T12:11:55.975Z,90
2017-08-07T12:16:13.979Z,90
2017-08-07T12:18:30.349Z,85
2017-08-07T12:20:55.213Z,85
2017-08-07T12:23:11.608Z,85
2017-08-07T12:25:36.485Z,85
2017-08-07T12:28:01.375Z,85
2017-08-07T12:30:17.732Z,85
2017-08-07T12:34:44.089Z,85
2017-08-07T12:37:10.467Z,85
2017-08-07T12:39:33.751Z,85
2017-08-07T12:41:58.574Z,85
2017-08-07T12:44:06.439Z,85
2017-08-07T12:46:31.287Z,85
2017-08-07T12:48:56.096Z,80
2017-08-07T12:51:20.986Z,85
2017-08-07T12:53:37.276Z,85
2017-08-07T12:56:02.035Z,80
2017-08-07T12:58:26.814Z,80
2017-08-07T13:00:51.634Z,80
2017-08-07T13:03:07.944Z,80
2017-08-07T13:05:32.744Z,80
2017-08-07T13:07:57.548Z,85
2017-08-07T13:10:22.358Z,80
2017-08-07T13:12:47.186Z,80
2017-08-07T13:15:03.517Z,80
2017-08-07T13:17:28.323Z,80
2017-08-07T13:19:44.639Z,75
2017-08-07T13:22:00.983Z,80
2017-08-07T13:24:17.308Z,75
2017-08-07T13:26:42.073Z,80
2017-08-07T13:29:06.910Z,75
2017-08-07T13:31:31.699Z,80
2017-08-07T13:33:56.531Z,75
2017-08-07T13:38:22.945Z,75
2017-08-07T13:40:39.300Z,75
2017-08-07T13:44:57.206Z,75
2017-08-07T13:47:22.015Z,75
2017-08-07T13:49:46.830Z,70
2017-08-07T13:52:11.606Z,75
2017-08-07T13:54:27.931Z,70
2017-08-07T13:56:52.713Z,70
2017-08-07T13:59:17.521Z,70
2017-08-07T14:03:52.519Z,70
2017-08-07T14:06:17.320Z,70
2017-08-07T14:08:33.658Z,70
2017-08-07T14:10:58.457Z,70
2017-08-07T14:15:16.319Z,70
2017-08-07T14:17:41.146Z,70
2017-08-07T14:22:16.100Z,70
2017-08-07T14:24:40.932Z,65
2017-08-07T14:27:05.744Z,65
2017-08-07T14:29:30.553Z,65
2017-08-07T14:31:46.878Z,65
2017-08-07T14:34:11.702Z,70
2017-08-07T14:36:28.085Z,70
2017-08-07T14:38:44.397Z,65
2017-08-07T14:41:09.220Z,65
2017-08-07T14:43:34.035Z,65
2017-08-07T14:45:50.376Z,65
2017-08-07T14:48:15.160Z,65
2017-08-07T14:50:31.442Z,65
2017-08-07T14:52:56.253Z,65
2017-08-07T14:55:21.049Z,65
2017-08-07T14:57:45.886Z,65
2017-08-07T14:59:53.738Z,65
2017-08-07T15:02:18.509Z,65
2017-08-07T15:04:43.276Z,65
2017-08-07T15:07:08.063Z,65
2017-08-07T15:09:32.878Z,65
2017-08-07T15:11:49.212Z,65
2017-08-07T15:13:57.030Z,65
2017-08-07T15:17:55.902Z,60
2017-08-07T15:20:20.740Z,65
2017-08-07T15:22:45.526Z,65
2017-08-07T15:25:10.370Z,65
2017-08-07T15:27:35.184Z,60
2017-08-07T15:32:01.596Z,60
2017-08-07T15:34:17.912Z,60
2017-08-07T15:36:42.716Z,60
2017-08-07T15:39:07.540Z,60
2017-08-07T15:41:15.326Z,65
2017-08-07T15:43:40.110Z,60
2017-08-07T15:47:57.981Z,60
2017-08-07T15:50:22.776Z,65
2017-08-07T15:52:39.059Z,65
2017-08-07T15:54:46.881Z,60
2017-08-07T15:57:11.668Z,65
2017-08-07T15:59:36.439Z,65
2017-08-07T16:01:52.766Z,35
2017-08-07T16:04:18.467Z,65
2017-08-07T16:06:43.234Z,60
2017-08-07T16:11:10.558Z,65
2017-08-07T16:13:35.764Z,60
2017-08-07T16:15:52.196Z,60
2017-08-07T16:18:17.010Z,60
2017-08-07T16:20:41.850Z,60
2017-08-07T16:22:58.135Z,60
2017-08-07T16:25:14.337Z,60
2017-08-07T16:27:39.102Z,55
2017-08-07T16:30:03.997Z,55
2017-08-07T16:32:28.761Z,55
2017-08-07T16:34:53.445Z,60
2017-08-07T16:37:18.147Z,60
2017-08-07T16:39:42.944Z,55
2017-08-07T16:42:07.699Z,55
2017-08-07T16:44:32.365Z,55
2017-08-07T16:46:57.139Z,55
2017-08-07T16:49:21.806Z,55
2017-08-07T16:51:46.532Z,50
2017-08-07T16:54:11.273Z,45
2017-08-07T16:56:36.025Z,45
2017-08-07T16:58:52.281Z,50
2017-08-07T17:01:08.538Z,45
2017-08-07T17:03:24.790Z,45
2017-08-07T17:05:49.467Z,50
2017-08-07T17:08:14.188Z,50
2017-08-07T17:10:38.893Z,50
2017-08-07T17:13:03.617Z,45
2017-08-07T17:17:29.812Z,45
2017-08-07T17:19:54.516Z,45
2017-08-07T17:22:02.250Z,45
2017-08-07T17:24:26.963Z,45
2017-08-07T17:26:51.658Z,40
2017-08-07T17:29:16.357Z,40
2017-08-07T17:31:41.621Z,40
2017-08-07T17:34:06.331Z,40
2017-08-07T17:36:31.019Z,40
2017-08-07T17:38:55.663Z,40
2017-08-07T17:41:11.880Z,35
2017-08-07T17:43:28.070Z,30
2017-08-07T17:45:52.752Z,25
2017-08-07T17:48:17.430Z,25
2017-08-07T17:50:42.117Z,25
2017-08-07T17:55:46.548Z,20
2017-08-07T17:58:11.178Z,20
2017-08-07T18:00:36.785Z,20
2017-08-07T18:03:01.457Z,15
2017-08-07T18:05:17.496Z,15
2017-08-07T18:07:42.098Z,15
2017-08-07T18:10:06.725Z,15
2017-08-07T18:14:41.544Z,15
2017-08-07T18:17:06.233Z,15
2017-08-07T18:19:30.779Z,15
2017-08-07T18:22:00.869Z,15
2017-08-07T18:24:25.295Z,10
2017-08-07T18:26:49.911Z,10
2017-08-07T18:29:14.567Z,10
2017-08-07T18:31:39.180Z,10
2017-08-07T18:33:55.290Z,5
2017-08-07T18:36:19.910Z,5
2017-08-07T18:38:44.470Z,5
2017-08-07T18:41:09.007Z,5
2017-08-07T18:43:33.575Z,5
2017-08-07T18:45:58.161Z,0
2017-08-07T18:48:22.752Z,0
2017-08-07T18:50:47.787Z,0
2017-08-07T18:53:12.316Z,0
2017-08-07T18:55:28.349Z,0
2017-08-07T18:57:52.897Z,0
2017-08-07T19:00:17.421Z,0
2017-08-07T19:02:42.036Z,0
2017-08-07T19:05:06.591Z,0
2017-08-07T19:07:31.130Z,0
2017-08-07T19:09:47.175Z,0
2017-08-07T19:12:11.719Z,0
2017-08-07T19:14:36.227Z,0
2017-08-07T19:17:00.717Z,0
2017-08-07T19:19:25.251Z,0
2017-08-07T19:21:49.761Z,0
2017-08-07T19:24:05.810Z,0
2017-08-07T19:26:30.314Z,0
2017-08-07T19:28:54.805Z,0
2017-08-07T19:31:19.301Z,0
2017-08-07T19:33:43.751Z,0
2017-08-07T19:36:08.193Z,0
2017-08-07T19:38:32.647Z,0
2017-08-07T19:42:50.179Z,0
2017-08-07T19:45:14.642Z,0
2017-08-07T19:47:30.605Z,0
2017-08-07T19:49:54.975Z,0
2017-08-07T19:52:19.363Z,0
2017-08-07T19:54:43.804Z,0
2017-08-07T19:56:59.775Z,0
2017-08-07T19:59:24.206Z,0
2017-08-07T20:01:48.605Z,0
2017-08-07T20:04:04.583Z,0
2017-08-07T20:06:29.002Z,0
2017-08-07T20:08:44.971Z,0
2017-08-07T20:11:09.380Z,0
2017-08-07T20:13:33.774Z,0
2017-08-07T20:15:58.168Z,0
2017-08-07T20:18:22.578Z,0
2017-08-07T20:22:56.956Z,0
2017-08-07T20:25:21.315Z,0
2017-08-07T20:27:45.660Z,0
2017-08-07T20:32:03.022Z,0
2017-08-07T20:34:27.398Z,0
2017-08-07T20:36:51.729Z,0
2017-08-07T20:39:16.214Z,0
2017-08-07T20:43:50.586Z,0
2017-08-07T20:48:24.938Z,0
2017-08-07T20:52:59.281Z,0
2017-08-07T20:55:23.652Z,0
2017-08-07T20:57:47.980Z,0
2017-08-07T21:00:12.296Z,0
2017-08-07T21:02:36.599Z,0
2017-08-07T21:05:00.910Z,0
2017-08-07T21:07:25.215Z,0
2017-08-07T21:09:49.523Z,0
2017-08-07T21:12:05.350Z,0
2017-08-07T21:14:29.617Z,0
2017-08-07T21:16:53.889Z,0
2017-08-07T21:19:01.283Z,0
2017-08-07T21:21:17.121Z,0
2017-08-07T21:23:41.408Z,0
2017-08-07T21:26:05.710Z,0
2017-08-07T21:30:39.933Z,0
2017-08-07T21:33:04.231Z,0
2017-08-07T21:35:28.529Z,0
2017-08-07T21:37:52.806Z,0
2017-08-07T21:40:17.083Z,0
2017-08-07T21:42:41.353Z,0
2017-08-07T21:45:05.649Z,0
2017-08-07T21:47:29.885Z,0
2017-08-07T21:49:55.371Z,0
2017-08-07T21:52:11.077Z,0
2017-08-07T21:54:35.314Z,0
2017-08-07T21:56:51.150Z,0
2017-08-07T21:59:15.412Z,0
2017-08-07T22:01:39.705Z,0
2017-08-07T22:04:03.967Z,0
2017-08-07T22:08:21.321Z,0
2017-08-07T22:10:45.617Z,0
2017-08-07T22:13:01.439Z,0
2017-08-07T22:15:25.701Z,0
2017-08-07T22:17:49.946Z,0
2017-08-07T22:20:14.189Z,0
2017-08-07T22:22:38.445Z,0
2017-08-07T22:25:02.704Z,0
2017-08-07T22:27:26.971Z,0
2017-08-07T22:29:51.233Z,0
2017-08-07T22:32:15.486Z,0
2017-08-07T22:36:41.170Z,0
2017-08-07T22:39:05.384Z,0
2017-08-07T22:41:21.175Z,0
2017-08-07T22:43:45.388Z,0
2017-08-07T22:46:09.597Z,0
2017-08-07T22:48:33.816Z,0
2017-08-07T22:52:51.127Z,0
2017-08-07T22:55:15.341Z,0
2017-08-07T22:57:31.108Z,0
2017-08-07T22:59:55.333Z,0
2017-08-07T23:02:19.541Z,0
2017-08-07T23:04:43.777Z,0
2017-08-07T23:07:07.992Z,0
2017-08-07T23:09:32.220Z,0
2017-08-07T23:11:56.458Z,0
2017-08-07T23:14:12.300Z,0
2017-08-07T23:16:36.541Z,0
2017-08-07T23:19:00.763Z,0
2017-08-07T23:21:24.954Z,0
2017-08-07T23:23:49.138Z,0
2017-08-07T23:28:06.832Z,0
2017-08-07T23:30:31.071Z,0
2017-08-07T23:32:55.297Z,0
2017-08-07T23:35:19.507Z,0
2017-08-07T23:37:43.704Z,0
2017-08-07T23:40:07.916Z,0
2017-08-07T23:42:23.683Z,0
2017-08-07T23:44:47.894Z,0
2017-08-07T23:47:12.211Z,0
2017-08-07T23:49:27.975Z,0
2017-08-07T23:51:52.189Z,0
2017-08-07T23:54:16.403Z,0
2017-08-07T23:58:47.370Z,0
